Time;durP1;ratioP1;P1;durP2;ratioP2;P2;SDS_P1;SDS_P2;PMS_P1;PMS_P2;Temp;Humidity;BMP_temperature;BMP_pressure;BME280_temperature;BME280_humidity;BME280_pressure;Samples;Min_cycle;Max_cycle;Signal;HPM_P1;HPM_P2
2020/12/07 00:00:47;;;;;;;0.17;0.15;;;4.80;99.90;;;;;;5085280;28;20563;-56
2020/12/07 00:03:14;;;;;;;0.20;0.10;;;4.80;99.90;;;;;;5089878;28;20078;-56
2020/12/07 00:05:40;;;;;;;0.82;0.10;;;4.80;99.90;;;;;;5086061;28;20049;-55
2020/12/07 00:08:07;;;;;;;0.10;0.10;;;4.80;99.90;;;;;;5082059;28;20408;-55
2020/12/07 00:13:11;;;;;;;0.10;0.10;;;4.90;99.90;;;;;;5059830;28;20048;-55
2020/12/07 00:15:38;;;;;;;0.20;0.10;;;4.80;99.90;;;;;;5076559;28;20052;-55
2020/12/07 00:18:04;;;;;;;0.50;0.10;;;4.80;99.90;;;;;;5068964;28;20044;-53
2020/12/07 00:20:31;;;;;;;0.28;0.10;;;4.80;99.90;;;;;;5074553;28;20055;-54
2020/12/07 00:22:58;;;;;;;0.10;0.10;;;4.80;99.90;;;;;;5063703;28;20362;-55
2020/12/07 00:25:24;;;;;;;0.10;0.10;;;4.90;99.90;;;;;;5070588;28;20063;-55
2020/12/07 00:27:51;;;;;;;0.10;0.10;;;4.90;99.90;;;;;;5076047;28;20049;-55
2020/12/07 00:30:17;;;;;;;1.13;0.10;;;4.90;99.90;;;;;;5074663;28;20051;-55
2020/12/07 00:32:44;;;;;;;0.20;0.20;;;4.90;99.90;;;;;;5073567;28;20049;-54
2020/12/07 00:35:10;;;;;;;0.30;0.10;;;4.90;99.90;;;;;;5074839;28;20139;-54
2020/12/07 00:37:37;;;;;;;1.10;0.10;;;4.80;99.90;;;;;;5071875;28;20110;-56
2020/12/07 00:40:04;;;;;;;0.30;0.10;;;4.80;99.90;;;;;;5076455;28;20057;-55
2020/12/07 00:42:31;;;;;;;0.50;0.20;;;4.80;99.90;;;;;;5073913;28;20063;-55
2020/12/07 00:44:58;;;;;;;0.10;0.10;;;4.80;99.90;;;;;;5067910;28;20098;-55
2020/12/07 00:47:24;;;;;;;0.20;0.10;;;4.70;99.90;;;;;;5069281;28;20045;-55
2020/12/07 00:49:51;;;;;;;0.10;0.00;;;4.80;99.90;;;;;;5061280;28;20052;-56
2020/12/07 00:52:17;;;;;;;0.95;0.17;;;4.70;99.90;;;;;;5073477;28;20053;-53
2020/12/07 00:54:43;;;;;;;1.15;0.10;;;4.70;99.90;;;;;;5073347;28;20051;-56
2020/12/07 00:57:10;;;;;;;0.20;0.10;;;4.70;99.90;;;;;;5070027;28;20162;-54
2020/12/07 00:59:37;;;;;;;0.32;0.10;;;4.70;99.90;;;;;;5071947;28;20048;-55
2020/12/07 01:02:05;;;;;;;0.10;0.10;;;4.70;99.90;;;;;;5076288;28;20519;-55
2020/12/07 01:04:31;;;;;;;0.00;0.00;;;4.60;99.90;;;;;;5072540;28;20504;-55
2020/12/07 01:06:58;;;;;;;0.00;0.00;;;4.60;99.90;;;;;;5072990;28;20135;-56
2020/12/07 01:09:25;;;;;;;0.08;0.00;;;4.60;99.90;;;;;;5074588;28;20059;-55
2020/12/07 01:11:59;;;;;;;0.00;0.00;;;4.60;99.90;;;;;;5075212;28;20063;-55
2020/12/07 01:14:26;;;;;;;0.47;0.00;;;4.60;99.90;;;;;;5063269;28;20049;-54
2020/12/07 01:16:54;;;;;;;0.00;0.00;;;4.50;99.90;;;;;;5073234;28;20052;-55
2020/12/07 01:19:22;;;;;;;0.00;0.00;;;4.50;99.90;;;;;;5073597;28;20132;-55
2020/12/07 01:21:49;;;;;;;0.13;0.00;;;4.40;99.90;;;;;;5075361;28;20056;-55
2020/12/07 01:24:16;;;;;;;0.00;0.00;;;4.40;99.90;;;;;;5075490;28;20063;-55
2020/12/07 01:26:43;;;;;;;0.00;0.00;;;4.40;99.90;;;;;;5069436;28;20085;-55
2020/12/07 01:29:09;;;;;;;0.00;0.00;;;4.40;99.90;;;;;;5071408;28;20582;-53
2020/12/07 01:31:36;;;;;;;0.32;0.00;;;4.30;99.90;;;;;;5060080;28;20045;-55
2020/12/07 01:34:03;;;;;;;0.00;0.00;;;4.30;99.90;;;;;;5071597;28;20427;-55
2020/12/07 01:36:30;;;;;;;0.08;0.00;;;4.30;99.90;;;;;;5060103;28;20041;-54
2020/12/07 01:38:56;;;;;;;0.55;0.00;;;4.20;99.90;;;;;;5073213;28;20688;-54
2020/12/07 01:41:23;;;;;;;0.10;0.00;;;4.20;99.90;;;;;;5073775;28;20399;-55
2020/12/07 01:43:50;;;;;;;0.95;0.00;;;4.10;99.90;;;;;;5064285;28;20049;-55
2020/12/07 01:46:20;;;;;;;0.10;0.00;;;4.10;99.90;;;;;;5054968;28;20041;-54
2020/12/07 01:48:47;;;;;;;0.20;0.10;;;4.10;99.90;;;;;;5070599;28;20049;-55
2020/12/07 01:51:15;;;;;;;0.20;0.00;;;4.00;99.90;;;;;;5071948;28;20508;-54
2020/12/07 01:53:42;;;;;;;0.05;0.00;;;4.00;99.90;;;;;;5055693;28;20056;-54
2020/12/07 01:56:19;;;;;;;0.63;0.00;;;3.90;99.90;;;;;;5069169;28;20044;-55
2020/12/07 01:58:46;;;;;;;0.00;0.00;;;3.90;99.90;;;;;;5063912;28;20088;-55
2020/12/07 02:01:12;;;;;;;0.00;0.00;;;3.80;99.90;;;;;;5073112;28;20419;-54
2020/12/07 02:03:39;;;;;;;0.20;0.00;;;3.70;99.90;;;;;;5070390;28;20075;-54
2020/12/07 02:06:05;;;;;;;0.00;0.00;;;3.60;99.90;;;;;;5072929;28;20064;-54
2020/12/07 02:08:31;;;;;;;0.10;0.00;;;3.70;99.90;;;;;;5070722;28;20044;-54
2020/12/07 02:10:58;;;;;;;0.00;0.00;;;3.70;99.90;;;;;;5074037;28;20055;-55
2020/12/07 02:13:24;;;;;;;0.00;0.00;;;3.70;99.90;;;;;;5070742;28;20485;-54
2020/12/07 02:15:51;;;;;;;0.17;0.03;;;3.70;99.90;;;;;;5072967;28;20056;-52
2020/12/07 02:18:17;;;;;;;0.20;0.00;;;3.60;99.90;;;;;;5072467;28;20049;-55
2020/12/07 02:20:48;;;;;;;0.10;0.00;;;3.80;99.90;;;;;;5070842;28;20056;-55
2020/12/07 02:23:15;;;;;;;0.10;0.00;;;3.80;99.90;;;;;;5067729;28;20045;-56
2020/12/07 02:25:42;;;;;;;0.10;0.00;;;3.90;99.90;;;;;;5069168;28;20491;-54
2020/12/07 02:28:09;;;;;;;0.00;0.00;;;4.00;99.90;;;;;;5072165;28;20053;-53
2020/12/07 02:30:35;;;;;;;0.13;0.00;;;4.10;99.90;;;;;;5071608;28;20127;-55
2020/12/07 02:33:02;;;;;;;0.00;0.00;;;4.10;99.90;;;;;;5070530;28;20407;-52
2020/12/07 02:35:29;;;;;;;0.00;0.00;;;4.10;99.90;;;;;;5063929;28;20052;-54
2020/12/07 02:37:56;;;;;;;1.17;0.00;;;4.10;99.90;;;;;;5061610;28;20061;-56
2020/12/07 02:40:23;;;;;;;0.10;0.00;;;4.00;99.90;;;;;;5071893;28;20055;-55
2020/12/07 02:42:49;;;;;;;0.10;0.00;;;3.90;99.90;;;;;;5070859;28;20048;-52
2020/12/07 02:45:17;;;;;;;0.00;0.00;;;3.80;99.90;;;;;;5072059;28;20060;-55
2020/12/07 02:47:44;;;;;;;0.00;0.00;;;3.70;99.90;;;;;;5070338;28;20048;-51
2020/12/07 02:50:12;;;;;;;0.10;0.00;;;3.70;99.90;;;;;;5059748;28;20044;-55
2020/12/07 02:52:39;;;;;;;0.03;0.00;;;3.70;99.90;;;;;;5070964;28;20048;-53
2020/12/07 02:55:11;;;;;;;0.08;0.00;;;3.60;99.90;;;;;;5070946;28;20037;-53
2020/12/07 02:57:38;;;;;;;0.20;0.10;;;3.60;99.90;;;;;;5059481;28;20056;-55
2020/12/07 03:00:08;;;;;;;0.00;0.00;;;3.60;99.90;;;;;;5069406;28;20056;-55
2020/12/07 03:02:35;;;;;;;0.00;0.00;;;3.60;99.90;;;;;;5070780;28;20645;-53
2020/12/07 03:05:06;;;;;;;0.30;0.20;;;3.60;99.90;;;;;;5070074;28;20051;-52
2020/12/07 03:07:32;;;;;;;0.22;0.00;;;3.60;99.90;;;;;;5070100;28;20379;-52
2020/12/07 03:09:59;;;;;;;0.10;0.10;;;3.70;99.90;;;;;;5071002;28;20476;-53
2020/12/07 03:12:25;;;;;;;0.10;0.10;;;3.80;99.90;;;;;;5069629;28;20055;-55
2020/12/07 03:14:52;;;;;;;0.17;0.00;;;3.80;99.90;;;;;;5062535;28;20457;-55
2020/12/07 03:17:19;;;;;;;0.13;0.10;;;3.70;99.90;;;;;;5066554;28;20040;-54
2020/12/07 03:19:45;;;;;;;0.00;0.00;;;3.70;99.90;;;;;;5071970;28;20060;-54
2020/12/07 03:22:12;;;;;;;0.00;0.00;;;3.60;99.90;;;;;;5069082;28;20052;-53
2020/12/07 03:24:38;;;;;;;0.10;0.00;;;3.60;99.90;;;;;;5073932;28;20051;-53
2020/12/07 03:27:05;;;;;;;0.00;0.00;;;3.50;99.90;;;;;;5066902;28;20048;-53
2020/12/07 03:29:31;;;;;;;0.20;0.00;;;3.40;99.90;;;;;;5061211;28;20740;-54
2020/12/07 03:31:59;;;;;;;0.10;0.00;;;3.40;99.90;;;;;;5082759;28;20044;-52
2020/12/07 03:34:26;;;;;;;0.00;0.00;;;3.40;99.90;;;;;;5074105;28;20044;-55
2020/12/07 03:36:53;;;;;;;0.40;0.10;;;3.40;99.90;;;;;;5065357;28;20545;-52
2020/12/07 03:39:19;;;;;;;0.10;0.00;;;3.50;99.90;;;;;;5069345;28;20071;-51
2020/12/07 03:41:46;;;;;;;0.10;0.00;;;3.40;99.90;;;;;;5070153;28;20048;-53
2020/12/07 03:44:13;;;;;;;0.00;0.00;;;3.40;99.90;;;;;;5071074;28;20048;-53
2020/12/07 03:46:39;;;;;;;0.08;0.00;;;3.50;99.90;;;;;;5069823;28;20040;-52
2020/12/07 03:49:06;;;;;;;0.10;0.00;;;3.50;99.90;;;;;;5069010;28;20044;-53
2020/12/07 03:51:32;;;;;;;0.00;0.00;;;3.50;99.90;;;;;;5064264;28;20045;-53
2020/12/07 03:53:58;;;;;;;0.10;0.00;;;3.50;99.90;;;;;;5084605;28;20044;-54
2020/12/07 03:56:25;;;;;;;0.10;0.00;;;3.50;99.90;;;;;;5067735;28;20048;-52
2020/12/07 03:58:51;;;;;;;0.00;0.00;;;3.50;99.90;;;;;;5054513;28;20057;-54
2020/12/07 04:01:18;;;;;;;0.00;0.00;;;3.60;99.90;;;;;;5068805;28;20122;-54
2020/12/07 04:03:51;;;;;;;0.00;0.00;;;3.60;99.90;;;;;;5061768;28;20053;-54
2020/12/07 04:06:34;;;;;;;0.00;0.00;;;3.60;99.90;;;;;;5057797;28;20052;-53
2020/12/07 04:09:00;;;;;;;0.60;0.00;;;3.60;99.90;;;;;;5064913;28;20048;-52
2020/12/07 04:11:27;;;;;;;0.10;0.00;;;3.60;99.90;;;;;;5070508;28;20059;-54
2020/12/07 04:13:53;;;;;;;0.00;0.00;;;3.60;99.90;;;;;;5070462;28;20037;-51
2020/12/07 04:16:24;;;;;;;0.20;0.00;;;3.60;99.90;;;;;;5059619;28;20052;-53
2020/12/07 04:18:51;;;;;;;0.00;0.00;;;3.60;99.90;;;;;;5060444;28;20060;-51
2020/12/07 04:21:17;;;;;;;0.38;0.00;;;3.60;99.90;;;;;;5061830;28;20041;-52
2020/12/07 04:23:44;;;;;;;0.00;0.00;;;3.60;99.90;;;;;;5071105;28;20064;-54
2020/12/07 04:26:10;;;;;;;1.85;0.00;;;3.60;99.90;;;;;;5067011;28;20085;-53
2020/12/07 04:28:36;;;;;;;0.00;0.00;;;3.60;99.90;;;;;;5052674;28;20049;-53
2020/12/07 04:31:03;;;;;;;0.15;0.00;;;3.60;99.90;;;;;;5069180;28;20048;-55
2020/12/07 04:33:29;;;;;;;0.00;0.00;;;3.50;99.90;;;;;;5068927;28;20049;-53
2020/12/07 04:35:56;;;;;;;0.00;0.00;;;3.50;99.90;;;;;;5061859;28;20057;-54
2020/12/07 04:38:23;;;;;;;0.00;0.00;;;3.50;99.90;;;;;;5062539;28;20048;-53
2020/12/07 04:40:50;;;;;;;0.00;0.00;;;3.50;99.90;;;;;;5061913;28;20056;-53
2020/12/07 04:43:18;;;;;;;0.00;0.00;;;3.50;99.90;;;;;;5067238;28;20052;-54
2020/12/07 04:45:45;;;;;;;0.00;0.00;;;3.50;99.90;;;;;;5053234;28;20401;-54
2020/12/07 04:48:12;;;;;;;0.00;0.00;;;3.50;99.90;;;;;;5065109;28;20041;-54
2020/12/07 04:50:39;;;;;;;0.00;0.00;;;3.50;99.90;;;;;;5055533;28;20393;-54
2020/12/07 04:53:05;;;;;;;0.00;0.00;;;3.50;99.90;;;;;;5067466;28;20489;-54
2020/12/07 04:55:32;;;;;;;0.00;0.00;;;3.40;99.90;;;;;;5060777;28;20047;-52
2020/12/07 04:58:00;;;;;;;0.03;0.00;;;3.50;99.90;;;;;;5057555;28;20049;-52
2020/12/07 05:00:26;;;;;;;0.00;0.00;;;3.40;99.90;;;;;;5064439;28;20048;-54
2020/12/07 05:02:55;;;;;;;0.03;0.00;;;3.40;99.90;;;;;;5065959;28;20505;-54
2020/12/07 05:05:23;;;;;;;0.65;0.00;;;3.40;99.90;;;;;;5068460;28;20056;-54
2020/12/07 05:07:51;;;;;;;0.00;0.00;;;3.40;99.90;;;;;;5079266;28;20070;-55
2020/12/07 05:10:32;;;;;;;0.00;0.00;;;3.30;99.90;;;;;;5074198;28;20049;-53
2020/12/07 05:13:17;;;;;;;2.15;0.00;;;3.30;99.90;;;;;;5072150;28;20047;-53
2020/12/07 05:15:44;;;;;;;0.00;0.00;;;3.30;99.90;;;;;;5061963;28;20048;-52
2020/12/07 05:18:11;;;;;;;0.00;0.00;;;3.30;99.90;;;;;;5069761;28;20044;-51
2020/12/07 05:20:37;;;;;;;0.00;0.00;;;3.40;99.90;;;;;;5057892;28;20503;-54
2020/12/07 05:23:04;;;;;;;0.00;0.00;;;3.40;99.90;;;;;;5072466;28;20048;-54
2020/12/07 05:25:31;;;;;;;0.00;0.00;;;3.40;99.90;;;;;;5071514;28;20052;-53
2020/12/07 05:27:59;;;;;;;0.00;0.00;;;3.50;99.90;;;;;;5072145;28;20075;-54
2020/12/07 05:30:40;;;;;;;0.15;0.00;;;3.50;99.90;;;;;;5067044;28;20048;-55
2020/12/07 05:33:07;;;;;;;0.00;0.00;;;3.50;99.90;;;;;;5056874;28;20052;-51
2020/12/07 05:35:38;;;;;;;0.10;0.00;;;3.50;99.90;;;;;;5069669;28;20052;-52
2020/12/07 05:38:06;;;;;;;0.10;0.00;;;3.50;99.90;;;;;;5073316;28;20056;-55
2020/12/07 05:40:32;;;;;;;0.80;0.00;;;3.50;99.90;;;;;;5063761;28;20060;-55
2020/12/07 05:42:59;;;;;;;0.10;0.00;;;3.60;99.90;;;;;;5065273;28;20455;-51
2020/12/07 05:45:27;;;;;;;0.15;0.00;;;3.60;99.90;;;;;;5073615;28;20052;-54
2020/12/07 05:47:54;;;;;;;0.00;0.00;;;3.70;99.90;;;;;;5071489;28;20040;-54
2020/12/07 05:50:21;;;;;;;0.00;0.00;;;3.70;99.90;;;;;;5073423;28;20063;-54
2020/12/07 05:52:49;;;;;;;0.00;0.00;;;3.70;99.90;;;;;;5073725;28;20424;-52
2020/12/07 05:55:17;;;;;;;0.10;0.10;;;3.80;99.90;;;;;;5072084;28;20044;-55
2020/12/07 05:57:46;;;;;;;0.45;0.00;;;3.80;99.90;;;;;;5072129;28;20053;-52
2020/12/07 06:00:20;;;;;;;0.10;0.00;;;3.80;99.90;;;;;;5070832;28;20048;-55
2020/12/07 06:02:53;;;;;;;;;;;3.80;99.90;;;;;;5074468;28;20139;-51
2020/12/07 06:05:21;;;;;;;0.00;0.00;;;3.80;99.90;;;;;;5071507;28;20268;-53
2020/12/07 06:07:54;;;;;;;0.00;0.00;;;3.80;99.90;;;;;;5071749;28;20511;-52
2020/12/07 06:10:25;;;;;;;0.90;0.00;;;3.80;99.90;;;;;;5073283;28;20511;-54
2020/12/07 06:12:55;;;;;;;0.00;0.00;;;3.80;99.90;;;;;;5070998;28;20059;-54
2020/12/07 06:15:22;;;;;;;0.32;0.20;;;3.90;99.90;;;;;;5074092;28;20432;-54
2020/12/07 06:17:49;;;;;;;0.30;0.20;;;3.90;99.90;;;;;;5072285;28;20412;-54
2020/12/07 06:20:30;;;;;;;0.20;0.10;;;3.90;99.90;;;;;;5073271;28;20051;-54
2020/12/07 06:22:58;;;;;;;2.22;0.10;;;3.90;99.90;;;;;;5071609;28;20056;-55
2020/12/07 06:25:27;;;;;;;0.10;0.00;;;3.90;99.90;;;;;;5062883;28;20737;-54
2020/12/07 06:28:01;;;;;;;0.57;0.30;;;3.90;99.90;;;;;;5072327;28;20135;-54
2020/12/07 06:30:38;;;;;;;0.28;0.20;;;3.90;99.90;;;;;;5070157;28;20048;-54
2020/12/07 06:33:08;;;;;;;1.40;0.28;;;4.00;99.90;;;;;;5079008;28;20040;-53
2020/12/07 06:35:46;;;;;;;5.22;1.45;;;4.00;99.90;;;;;;5068928;28;20242;-54
2020/12/07 06:38:13;;;;;;;4.10;1.58;;;4.00;99.90;;;;;;5083145;28;20043;-54
2020/12/07 06:40:40;;;;;;;2.40;0.90;;;4.00;99.90;;;;;;5072528;28;20059;-56
2020/12/07 06:43:29;;;;;;;0.35;0.28;;;4.00;99.90;;;;;;5066201;28;20057;-54
2020/12/07 06:45:56;;;;;;;1.23;0.30;;;4.00;99.90;;;;;;5071669;28;20056;-53
2020/12/07 06:48:24;;;;;;;1.00;0.10;;;4.00;99.90;;;;;;5069002;28;20048;-54
2020/12/07 06:50:53;;;;;;;0.73;0.13;;;4.00;99.90;;;;;;5066067;28;20351;-54
2020/12/07 06:55:54;;;;;;;1.48;0.60;;;4.00;99.90;;;;;;5063031;28;20069;-54
2020/12/07 06:58:37;;;;;;;0.10;0.08;;;4.10;99.90;;;;;;5062702;28;20056;-53
2020/12/07 07:01:15;;;;;;;1.02;0.10;;;4.10;99.90;;;;;;5071285;28;20059;-49
2020/12/07 07:03:56;;;;;;;0.10;0.10;;;4.10;99.90;;;;;;5084712;28;20127;-49
2020/12/07 07:06:24;;;;;;;0.10;0.10;;;4.10;99.90;;;;;;5070800;28;20053;-49
2020/12/07 07:08:51;;;;;;;0.10;0.10;;;4.20;99.90;;;;;;5069883;28;20041;-49
2020/12/07 07:11:18;;;;;;;1.05;0.10;;;4.20;99.90;;;;;;5060392;28;20072;-48
2020/12/07 07:13:48;;;;;;;0.45;0.40;;;4.20;99.90;;;;;;5066746;28;20429;-49
2020/12/07 07:16:19;;;;;;;0.10;0.10;;;4.30;99.90;;;;;;5072076;28;20045;-48
2020/12/07 07:18:45;;;;;;;0.20;0.10;;;4.30;99.90;;;;;;5071195;28;20064;-49
2020/12/07 07:21:12;;;;;;;0.08;0.08;;;4.30;99.90;;;;;;5063517;28;20055;-49
2020/12/07 07:23:42;;;;;;;0.00;0.00;;;4.30;99.90;;;;;;5063351;28;20044;-48
2020/12/07 07:26:16;;;;;;;0.00;0.00;;;4.40;99.90;;;;;;5061997;28;20044;-49
2020/12/07 07:28:46;;;;;;;1.13;0.20;;;4.40;99.90;;;;;;5070364;28;20148;-48
2020/12/07 07:31:14;;;;;;;0.98;0.50;;;4.50;99.90;;;;;;5068992;28;20125;-49
2020/12/07 07:33:40;;;;;;;1.48;0.22;;;4.60;99.90;;;;;;5062201;28;20052;-49
2020/12/07 07:36:07;;;;;;;1.52;0.40;;;4.70;99.90;;;;;;5065328;28;20488;-49
2020/12/07 07:38:36;;;;;;;0.80;0.60;;;4.70;99.90;;;;;;5058994;28;20530;-49
2020/12/07 07:41:02;;;;;;;4.05;0.80;;;4.80;99.90;;;;;;5061169;28;20504;-48
2020/12/07 07:43:30;;;;;;;0.80;0.35;;;4.90;99.90;;;;;;5062443;28;20051;-48
2020/12/07 07:46:02;;;;;;;4.25;0.88;;;4.90;99.90;;;;;;5063621;28;20061;-48
2020/12/07 07:59:51;;;;;;;1.67;0.90;;;4.90;99.90;;;;;;5054470;28;20098;-49
2020/12/07 08:15:38;;;;;;;0.22;0.20;;;5.00;99.90;;;;;;5070654;28;20056;-49
2020/12/07 08:18:05;;;;;;;0.40;0.30;;;5.00;99.90;;;;;;5068244;28;20071;-48
2020/12/07 08:20:35;;;;;;;0.98;0.30;;;5.00;99.90;;;;;;5055956;28;20040;-49
2020/12/07 08:23:06;;;;;;;1.38;0.30;;;4.90;99.90;;;;;;5069072;28;20064;-49
2020/12/07 08:25:51;;;;;;;1.95;0.40;;;4.90;99.90;;;;;;5068937;28;20041;-48
2020/12/07 08:28:38;;;;;;;0.70;0.30;;;5.00;99.90;;;;;;5069995;28;20049;-48
2020/12/07 08:31:13;;;;;;;1.77;0.50;;;5.00;99.90;;;;;;5068612;28;20102;-48
2020/12/07 08:34:01;;;;;;;0.57;0.45;;;5.00;99.90;;;;;;5058241;28;20515;-48
2020/12/07 08:36:30;;;;;;;0.80;0.50;;;5.00;99.90;;;;;;5065566;28;20057;-48
2020/12/07 08:38:57;;;;;;;0.70;0.50;;;5.10;99.90;;;;;;5068056;28;20076;-49
2020/12/07 08:41:25;;;;;;;1.10;0.60;;;5.10;99.90;;;;;;5074026;28;20484;-49
2020/12/07 08:43:55;;;;;;;0.60;0.50;;;5.20;99.90;;;;;;5072593;28;20045;-48
2020/12/07 08:46:23;;;;;;;0.98;0.40;;;5.20;99.90;;;;;;5056764;28;20045;-49
2020/12/07 08:48:51;;;;;;;0.43;0.40;;;5.20;99.90;;;;;;5072200;28;20052;-48
2020/12/07 08:51:22;;;;;;;0.70;0.40;;;5.20;99.90;;;;;;5058265;28;20404;-49
2020/12/07 08:53:49;;;;;;;2.53;0.70;;;5.20;99.90;;;;;;5066185;28;20049;-49
2020/12/07 08:56:16;;;;;;;0.60;0.55;;;5.30;99.90;;;;;;5063873;28;20045;-49
2020/12/07 08:58:43;;;;;;;1.40;0.40;;;5.40;99.90;;;;;;5074231;28;20083;-48
2020/12/07 09:01:11;;;;;;;0.52;0.38;;;5.50;99.90;;;;;;5071676;28;20056;-48
2020/12/07 09:03:40;;;;;;;0.63;0.50;;;5.60;99.90;;;;;;5074229;28;20354;-49
2020/12/07 09:06:08;;;;;;;0.50;0.32;;;5.70;99.90;;;;;;5070509;28;20762;-49
2020/12/07 09:08:36;;;;;;;3.13;0.30;;;5.90;99.90;;;;;;5058984;28;20057;-48
2020/12/07 09:11:04;;;;;;;1.30;0.20;;;6.00;99.90;;;;;;5073489;28;20053;-49
2020/12/07 09:13:30;;;;;;;0.38;0.20;;;6.10;99.90;;;;;;5072181;28;20495;-49
2020/12/07 09:15:57;;;;;;;0.40;0.30;;;6.20;99.90;;;;;;5061280;28;20051;-50
2020/12/07 09:18:24;;;;;;;1.00;0.22;;;6.20;99.90;;;;;;5070034;28;20048;-50
2020/12/07 09:20:51;;;;;;;2.25;0.38;;;6.20;99.90;;;;;;5072481;28;20060;-49
2020/12/07 09:23:17;;;;;;;1.15;0.43;;;6.30;99.90;;;;;;5069441;28;20065;-49
2020/12/07 09:25:44;;;;;;;0.60;0.43;;;6.40;99.90;;;;;;5057435;28;20095;-48
2020/12/07 09:28:10;;;;;;;1.55;0.30;;;6.50;99.90;;;;;;5074226;28;20040;-48
2020/12/07 09:30:38;;;;;;;0.45;0.22;;;6.40;99.90;;;;;;5071898;28;20451;-48
2020/12/07 09:33:04;;;;;;;0.30;0.30;;;6.40;99.90;;;;;;5073872;28;20389;-48
2020/12/07 09:35:31;;;;;;;1.30;0.30;;;6.40;99.90;;;;;;5072470;28;20045;-48
2020/12/07 09:37:58;;;;;;;1.50;0.40;;;6.50;99.90;;;;;;5074042;28;20071;-48
2020/12/07 09:40:24;;;;;;;1.60;0.40;;;6.60;99.90;;;;;;5069304;28;20501;-48
2020/12/07 09:42:51;;;;;;;0.40;0.20;;;6.80;99.90;;;;;;5074729;28;20451;-48
2020/12/07 09:45:17;;;;;;;0.80;0.20;;;6.80;99.90;;;;;;5072999;28;20381;-49
2020/12/07 09:47:44;;;;;;;1.25;0.20;;;6.80;99.90;;;;;;5069304;28;20064;-49
2020/12/07 09:50:11;;;;;;;0.75;0.17;;;7.00;99.90;;;;;;5067419;28;20076;-49
2020/12/07 09:52:38;;;;;;;0.20;0.10;;;7.10;99.90;;;;;;5064377;28;20056;-48
2020/12/07 09:55:05;;;;;;;0.30;0.30;;;7.00;99.90;;;;;;5073063;28;20131;-48
2020/12/07 09:57:32;;;;;;;0.77;0.10;;;7.10;99.90;;;;;;5068339;28;20469;-49
2020/12/07 09:59:59;;;;;;;1.05;0.20;;;7.10;99.90;;;;;;5057971;28;20040;-48
2020/12/07 10:02:25;;;;;;;0.85;0.20;;;7.10;99.90;;;;;;5072314;28;20390;-48
2020/12/07 10:04:52;;;;;;;3.70;0.20;;;7.10;99.90;;;;;;5071997;28;20055;-48
2020/12/07 10:07:19;;;;;;;1.65;0.20;;;7.00;99.90;;;;;;5072201;28;20400;-48
2020/12/07 10:09:45;;;;;;;8.73;0.55;;;7.00;99.90;;;;;;5070094;28;20592;-48
2020/12/07 10:12:12;;;;;;;0.55;0.20;;;7.20;99.90;;;;;;5069734;28;20063;-48
2020/12/07 10:14:38;;;;;;;1.48;0.10;;;7.40;99.90;;;;;;5068523;28;20052;-49
2020/12/07 10:17:05;;;;;;;1.52;0.30;;;7.50;99.90;;;;;;5068037;28;20052;-49
2020/12/07 10:19:32;;;;;;;0.73;0.30;;;7.50;99.90;;;;;;5066557;28;20048;-48
2020/12/07 10:22:03;;;;;;;0.95;0.20;;;7.60;99.90;;;;;;5059916;28;20052;-48
2020/12/07 10:24:30;;;;;;;1.45;0.30;;;7.70;99.90;;;;;;5061439;28;20049;-48
2020/12/07 10:26:57;;;;;;;1.27;0.30;;;7.70;99.90;;;;;;5064369;28;20068;-48
2020/12/07 10:29:25;;;;;;;4.35;0.20;;;7.70;99.90;;;;;;5059352;28;20500;-50
2020/12/07 10:31:52;;;;;;;0.45;0.10;;;7.60;99.90;;;;;;5070977;28;20042;-48
2020/12/07 10:34:18;;;;;;;1.50;0.10;;;7.60;99.90;;;;;;5070086;28;20037;-48
2020/12/07 10:36:47;;;;;;;2.60;0.20;;;7.60;99.90;;;;;;5066049;28;20386;-49
2020/12/07 10:39:14;;;;;;;3.50;0.60;;;7.60;99.90;;;;;;5059172;28;20044;-49
2020/12/07 10:41:40;;;;;;;4.55;0.80;;;7.50;99.90;;;;;;5063446;28;20055;-49
2020/12/07 10:44:08;;;;;;;3.45;0.20;;;7.50;99.90;;;;;;5060328;28;20052;-49
2020/12/07 10:46:37;;;;;;;2.92;1.05;;;7.50;99.90;;;;;;5071585;28;20044;-48
2020/12/07 10:49:08;;;;;;;3.40;0.30;;;7.50;99.90;;;;;;5065756;28;20680;-48
2020/12/07 10:51:35;;;;;;;2.85;0.32;;;7.50;99.90;;;;;;5070527;28;20052;-50
2020/12/07 10:54:02;;;;;;;1.38;0.40;;;7.40;99.90;;;;;;5070942;28;20413;-48
2020/12/07 10:56:29;;;;;;;1.10;0.25;;;7.50;99.90;;;;;;5068924;28;20055;-48
2020/12/07 10:58:55;;;;;;;3.42;0.88;;;7.50;99.90;;;;;;5070644;28;20052;-48
2020/12/07 11:01:22;;;;;;;1.55;0.22;;;7.50;99.90;;;;;;5067472;28;20390;-48
2020/12/07 11:03:49;;;;;;;0.57;0.20;;;7.50;99.90;;;;;;5070775;28;20373;-48
2020/12/07 11:06:22;;;;;;;1.70;0.77;;;7.60;99.90;;;;;;5069553;28;20056;-49
2020/12/07 11:08:51;;;;;;;2.55;0.30;;;7.60;99.90;;;;;;5071567;28;20530;-48
2020/12/07 11:11:20;;;;;;;2.92;0.60;;;7.60;99.90;;;;;;5067280;28;20049;-49
2020/12/07 11:13:46;;;;;;;2.08;0.50;;;7.60;99.90;;;;;;5069786;28;20658;-49
2020/12/07 11:16:15;;;;;;;3.38;0.30;;;7.60;99.90;;;;;;5068454;28;20041;-48
2020/12/07 11:18:42;;;;;;;0.80;0.50;;;7.60;99.90;;;;;;5070560;28;20048;-48
2020/12/07 11:21:14;;;;;;;3.03;0.30;;;7.60;99.90;;;;;;5070052;28;20408;-48
2020/12/07 11:23:43;;;;;;;1.65;0.10;;;7.60;99.90;;;;;;5070641;28;20052;-49
2020/12/07 11:26:11;;;;;;;0.80;0.20;;;7.60;99.90;;;;;;5064152;28;20078;-48
2020/12/07 11:28:38;;;;;;;1.33;0.40;;;7.60;99.90;;;;;;5068380;28;20067;-48
2020/12/07 11:31:11;;;;;;;4.82;0.82;;;7.60;99.90;;;;;;5064158;28;20067;-48
2020/12/07 11:33:39;;;;;;;1.95;0.40;;;7.60;99.90;;;;;;5069145;28;20381;-48
2020/12/07 11:36:14;;;;;;;0.50;0.38;;;7.60;99.90;;;;;;5066469;28;20051;-48
2020/12/07 11:41:26;;;;;;;1.55;0.15;;;7.60;99.90;;;;;;5070131;28;20052;-49
2020/12/07 11:44:13;;;;;;;2.40;0.55;;;7.60;99.90;;;;;;5058671;28;20482;-48
2020/12/07 11:46:47;;;;;;;1.20;0.30;;;7.60;99.90;;;;;;5063199;28;20055;-49
2020/12/07 11:49:14;;;;;;;2.58;0.73;;;7.60;99.90;;;;;;5059300;28;20047;-49
2020/12/07 11:51:41;;;;;;;1.77;0.28;;;7.60;99.90;;;;;;5063691;28;20052;-48
2020/12/07 11:54:08;;;;;;;2.35;0.57;;;7.60;99.90;;;;;;5064070;28;20127;-49
2020/12/07 11:56:36;;;;;;;5.43;1.08;;;7.60;99.90;;;;;;5070788;28;20052;-49
2020/12/07 11:59:05;;;;;;;5.13;1.80;;;7.70;99.90;;;;;;5068340;28;20226;-48
2020/12/07 12:01:32;;;;;;;5.45;1.33;;;7.70;99.90;;;;;;5069453;28;20041;-49
2020/12/07 12:04:00;;;;;;;2.28;0.70;;;7.70;99.90;;;;;;5066097;28;20060;-48
2020/12/07 12:06:32;;;;;;;2.08;0.70;;;7.70;99.90;;;;;;5067458;28;20051;-49
2020/12/07 12:09:00;;;;;;;1.65;0.32;;;7.70;99.90;;;;;;5069321;28;20047;-48
2020/12/07 12:11:28;;;;;;;3.95;0.70;;;7.70;99.90;;;;;;5069901;28;20053;-49
2020/12/07 12:13:55;;;;;;;3.83;1.05;;;7.80;99.90;;;;;;5054180;28;20049;-48
2020/12/07 12:16:24;;;;;;;0.70;0.30;;;7.80;99.90;;;;;;5070326;28;20051;-48
2020/12/07 12:19:02;;;;;;;4.03;0.30;;;7.80;99.90;;;;;;5057208;28;20041;-48
2020/12/07 12:21:30;;;;;;;1.15;0.40;;;7.90;99.90;;;;;;5071328;28;20137;-48
2020/12/07 12:24:01;;;;;;;3.17;0.50;;;7.90;99.90;;;;;;5075471;28;20076;-48
2020/12/07 12:26:27;;;;;;;1.00;0.40;;;7.90;99.90;;;;;;5059476;28;20408;-50
2020/12/07 12:28:54;;;;;;;5.22;0.22;;;8.00;99.90;;;;;;5066918;28;20049;-52
2020/12/07 12:31:21;;;;;;;3.97;0.10;;;8.00;99.90;;;;;;5070420;28;20052;-49
2020/12/07 12:33:48;;;;;;;1.25;0.40;;;8.10;99.90;;;;;;5065678;28;20091;-49
2020/12/07 12:36:20;;;;;;;1.15;0.38;;;8.10;99.90;;;;;;5062009;28;20044;-52
2020/12/07 12:38:47;;;;;;;1.15;0.20;;;8.10;99.90;;;;;;5072254;28;20564;-52
2020/12/07 12:41:14;;;;;;;7.13;0.30;;;8.10;99.90;;;;;;5065432;28;20044;-49
2020/12/07 12:43:42;;;;;;;1.88;0.30;;;8.20;99.90;;;;;;5070798;28;20048;-51
2020/12/07 12:46:09;;;;;;;1.92;0.20;;;8.20;99.90;;;;;;5068201;28;20052;-49
2020/12/07 12:48:36;;;;;;;1.80;0.20;;;8.20;99.90;;;;;;5082682;28;20044;-48
2020/12/07 12:51:07;;;;;;;2.08;0.20;;;8.20;99.90;;;;;;5069868;28;20091;-48
2020/12/07 12:53:35;;;;;;;0.50;0.20;;;8.20;99.90;;;;;;5069870;28;20493;-48
2020/12/07 12:56:08;;;;;;;1.40;0.30;;;8.20;99.90;;;;;;5060712;28;20509;-48
2020/12/07 12:58:35;;;;;;;1.73;0.30;;;8.20;99.90;;;;;;5046868;28;20048;-50
2020/12/07 13:01:04;;;;;;;5.38;1.13;;;8.20;99.90;;;;;;5071171;28;20060;-48
2020/12/07 13:03:31;;;;;;;2.17;0.32;;;8.20;99.90;;;;;;5071019;28;20052;-49
2020/12/07 13:05:58;;;;;;;2.38;0.20;;;8.20;99.90;;;;;;5080148;28;20052;-49
2020/12/07 13:08:24;;;;;;;4.05;0.50;;;8.20;99.90;;;;;;5070079;28;20060;-50
2020/12/07 13:10:51;;;;;;;3.72;0.43;;;8.20;99.90;;;;;;5070008;28;20102;-49
2020/12/07 13:13:18;;;;;;;4.00;0.60;;;8.20;99.90;;;;;;5066065;28;20049;-49
2020/12/07 13:15:58;;;;;;;0.38;0.20;;;8.20;99.90;;;;;;5058025;28;20059;-49
2020/12/07 13:18:28;;;;;;;2.63;0.20;;;8.20;99.90;;;;;;5060217;28;20551;-48
2020/12/07 13:21:07;;;;;;;2.40;0.30;;;8.20;99.90;;;;;;5070736;28;20686;-48
2020/12/07 13:23:50;;;;;;;3.30;0.30;;;8.20;99.90;;;;;;5078199;28;20496;-49
2020/12/07 13:29:03;;;;;;;3.13;0.40;;;8.20;99.90;;;;;;5069058;28;20037;-49
2020/12/07 13:31:42;;;;;;;1.20;0.20;;;8.20;99.90;;;;;;5073425;28;20059;-48
2020/12/07 13:34:09;;;;;;;2.20;0.30;;;8.20;99.90;;;;;;5067649;28;20397;-48
2020/12/07 13:36:35;;;;;;;2.03;0.17;;;8.20;99.90;;;;;;5070246;28;20048;-48
2020/12/07 13:39:02;;;;;;;1.73;0.30;;;8.20;99.90;;;;;;5074819;28;20049;-49